Time;durP1;ratioP1;P1;durP2;ratioP2;P2;SDS_P1;SDS_P2;PMS_P1;PMS_P2;Temp;Humidity;BMP_temperature;BMP_pressure;BME280_temperature;BME280_humidity;BME280_pressure;Samples;Min_cycle;Max_cycle;Signal;HPM_P1;HPM_P2
2023/03/11 00:01:09;;;;;;;0.40;0.22;;;20.80;38.70;;;;;;6152098;29;20043;-51
2023/03/11 00:04:11;;;;;;;0.22;0.20;;;20.60;38.60;;;;;;6152153;29;20048;-53
2023/03/11 00:07:13;;;;;;;0.32;0.20;;;21.00;38.80;;;;;;6153648;28;20044;-52
2023/03/11 00:10:16;;;;;;;0.22;0.22;;;20.90;38.60;;;;;;6153246;29;20050;-51
2023/03/11 00:13:20;;;;;;;0.17;0.15;;;20.80;38.60;;;;;;6152301;28;20047;-52
2023/03/11 00:16:21;;;;;;;0.20;0.20;;;20.80;38.30;;;;;;6153447;28;20129;-54
2023/03/11 00:19:23;;;;;;;0.10;0.10;;;20.70;38.50;;;;;;6153123;29;20094;-51
2023/03/11 00:22:24;;;;;;;0.20;0.20;;;21.00;38.60;;;;;;6153395;29;20548;-52
2023/03/11 00:25:27;;;;;;;;;;;20.80;38.50;;;;;;6153719;28;20043;-54
2023/03/11 00:28:29;;;;;;;0.20;0.10;;;20.60;38.50;;;;;;6151740;29;20377;-52
2023/03/11 00:31:33;;;;;;;0.22;0.20;;;20.70;38.60;;;;;;6152829;28;20043;-52
2023/03/11 00:34:34;;;;;;;0.10;0.10;;;20.90;38.70;;;;;;6153437;29;20066;-53
2023/03/11 00:37:38;;;;;;;0.10;0.10;;;21.00;38.70;;;;;;6152957;28;20174;-53
2023/03/11 00:40:40;;;;;;;0.10;0.10;;;21.00;38.70;;;;;;6152743;29;20055;-50
2023/03/11 00:43:42;;;;;;;0.15;0.10;;;21.10;38.70;;;;;;6151322;29;20054;-51
2023/03/11 00:46:43;;;;;;;0.20;0.20;;;21.00;38.80;;;;;;6152837;28;20043;-49
2023/03/11 00:49:45;;;;;;;0.20;0.20;;;20.70;38.60;;;;;;6152677;28;20397;-53
2023/03/11 00:52:49;;;;;;;0.10;0.10;;;20.90;38.70;;;;;;6152724;28;20047;-51
2023/03/11 00:55:51;;;;;;;0.20;0.20;;;21.10;38.80;;;;;;6152727;29;20047;-54
2023/03/11 00:58:53;;;;;;;0.10;0.10;;;21.00;38.80;;;;;;6152853;28;20444;-51
2023/03/11 01:01:56;;;;;;;0.17;0.17;;;21.00;38.80;;;;;;6152468;28;20062;-52
2023/03/11 01:04:58;;;;;;;0.20;0.20;;;21.00;38.80;;;;;;6152529;28;20044;-51
2023/03/11 01:08:00;;;;;;;0.17;0.15;;;20.90;38.70;;;;;;6151463;28;20066;-53
2023/03/11 01:11:02;;;;;;;0.17;0.17;;;21.00;38.70;;;;;;6151861;28;20047;-51
2023/03/11 01:14:04;;;;;;;0.10;0.10;;;21.00;38.80;;;;;;6135406;29;20046;-52
2023/03/11 01:17:05;;;;;;;0.30;0.30;;;20.70;38.70;;;;;;6152243;28;20102;-52
2023/03/11 01:20:09;;;;;;;0.38;0.17;;;20.90;38.80;;;;;;6151921;29;20460;-53
2023/03/11 01:23:13;;;;;;;0.10;0.10;;;20.80;38.70;;;;;;6152135;29;20047;-48
2023/03/11 01:26:14;;;;;;;0.30;0.10;;;20.80;38.80;;;;;;6150861;29;20404;-51
2023/03/11 01:29:16;;;;;;;;;;;20.70;38.80;;;;;;6152115;29;20054;-50
2023/03/11 01:32:18;;;;;;;;;;;21.00;39.00;;;;;;6152294;28;19922;-51
2023/03/11 01:35:22;;;;;;;0.20;0.20;;;20.80;39.00;;;;;;6151877;28;19972;-53
2023/03/11 01:38:24;;;;;;;0.20;0.20;;;20.80;38.80;;;;;;6151696;29;20090;-51
2023/03/11 01:41:25;;;;;;;;;;;21.00;38.90;;;;;;6151526;28;20102;-52
2023/03/11 01:44:27;;;;;;;0.10;0.10;;;20.80;39.00;;;;;;6151826;28;19930;-51
2023/03/11 01:47:37;;;;;;;0.20;0.20;;;20.90;38.90;;;;;;6151449;28;20064;-53
2023/03/11 01:50:44;;;;;;;0.20;0.20;;;20.80;38.90;;;;;;6150125;29;20110;-51
2023/03/11 01:53:46;;;;;;;0.10;0.10;;;20.90;38.90;;;;;;6151504;28;20519;-52
2023/03/11 01:56:49;;;;;;;0.10;0.10;;;20.80;38.80;;;;;;6151453;28;20094;-51
2023/03/11 01:59:57;;;;;;;0.40;0.20;;;20.80;38.80;;;;;;6151662;29;20134;-54
2023/03/11 02:03:02;;;;;;;0.20;0.20;;;20.70;38.70;;;;;;6151283;28;20054;-50
2023/03/11 02:06:08;;;;;;;0.25;0.10;;;20.90;38.80;;;;;;6150167;29;20054;-54
2023/03/11 02:09:10;;;;;;;0.25;0.20;;;21.00;38.90;;;;;;6151080;28;20122;-52
2023/03/11 02:12:13;;;;;;;;;;;20.80;38.80;;;;;;6151582;28;20057;-51
2023/03/11 02:15:16;;;;;;;0.10;0.10;;;20.70;38.90;;;;;;6151113;28;19930;-51
2023/03/11 02:18:19;;;;;;;0.10;0.10;;;21.30;39.20;;;;;;6150975;28;20043;-54
2023/03/11 02:21:25;;;;;;;0.10;0.10;;;20.80;38.80;;;;;;6151389;28;20443;-54
2023/03/11 02:24:35;;;;;;;0.10;0.10;;;20.90;38.80;;;;;;6151202;28;20047;-48
2023/03/11 02:27:40;;;;;;;0.20;0.20;;;20.80;38.70;;;;;;6149874;29;20071;-51
2023/03/11 02:30:44;;;;;;;0.10;0.10;;;20.70;38.70;;;;;;6149760;29;20051;-51
2023/03/11 02:33:49;;;;;;;0.20;0.13;;;21.00;38.90;;;;;;6151284;28;20452;-53
2023/03/11 02:36:51;;;;;;;0.10;0.10;;;20.80;38.70;;;;;;6149587;29;20047;-53
2023/03/11 02:40:15;;;;;;;0.20;0.10;;;21.20;38.90;;;;;;6149899;29;20054;-54
2023/03/11 02:43:23;;;;;;;0.20;0.20;;;21.00;38.80;;;;;;6149748;29;20085;-52
2023/03/11 02:46:25;;;;;;;0.10;0.10;;;20.80;38.70;;;;;;6150679;28;20082;-50
2023/03/11 02:49:28;;;;;;;0.20;0.20;;;20.90;38.70;;;;;;6150928;28;20047;-50
2023/03/11 02:52:32;;;;;;;0.10;0.10;;;20.90;38.70;;;;;;6150587;28;20150;-52
2023/03/11 02:55:34;;;;;;;0.10;0.10;;;20.90;38.70;;;;;;6150525;28;20047;-53
2023/03/11 02:58:36;;;;;;;;;;;20.80;38.60;;;;;;6150972;29;20047;-53
2023/03/11 03:01:37;;;;;;;0.10;0.10;;;21.10;38.80;;;;;;6150934;28;19928;-51
2023/03/11 03:04:39;;;;;;;0.10;0.10;;;20.90;38.70;;;;;;6132691;29;20126;-53
2023/03/11 03:07:41;;;;;;;0.30;0.20;;;21.10;38.80;;;;;;6150267;28;20520;-52
2023/03/11 03:10:43;;;;;;;0.17;0.10;;;20.70;38.60;;;;;;6150441;28;20048;-52
2023/03/11 03:13:45;;;;;;;;;;;20.80;38.70;;;;;;6150669;28;20211;-49
2023/03/11 03:16:46;;;;;;;0.10;0.10;;;20.70;38.70;;;;;;6150090;28;19927;-52
2023/03/11 03:19:50;;;;;;;0.10;0.10;;;21.00;38.70;;;;;;6150345;29;20098;-50
2023/03/11 03:22:53;;;;;;;0.15;0.13;;;20.90;38.70;;;;;;6150538;28;20054;-53
2023/03/11 03:25:59;;;;;;;0.10;0.10;;;20.90;38.60;;;;;;6148889;29;20047;-52
2023/03/11 03:29:04;;;;;;;0.13;0.13;;;20.90;38.60;;;;;;6150316;28;20054;-50
2023/03/11 03:32:06;;;;;;;0.10;0.10;;;20.90;38.70;;;;;;6153907;28;20373;-52
2023/03/11 03:35:09;;;;;;;0.10;0.10;;;20.90;38.70;;;;;;6154202;29;20036;-53
2023/03/11 03:38:27;;;;;;;0.20;0.20;;;21.10;38.80;;;;;;6154401;28;20039;-50
2023/03/11 03:41:29;;;;;;;0.10;0.10;;;20.80;38.70;;;;;;6154152;28;20054;-52
2023/03/11 03:44:32;;;;;;;0.10;0.10;;;20.80;38.70;;;;;;6154272;28;20447;-54
2023/03/11 03:47:34;;;;;;;0.20;0.20;;;21.00;38.80;;;;;;6154241;28;20089;-50
2023/03/11 03:50:38;;;;;;;0.10;0.10;;;20.70;38.60;;;;;;6153749;28;20055;-53
2023/03/11 03:53:40;;;;;;;0.10;0.10;;;20.80;38.60;;;;;;6153860;28;20456;-51
2023/03/11 03:56:44;;;;;;;0.20;0.10;;;21.00;38.80;;;;;;6153271;28;20043;-53
2023/03/11 03:59:47;;;;;;;0.47;0.30;;;21.10;38.80;;;;;;6153775;28;20058;-52
2023/03/11 04:02:51;;;;;;;0.20;0.20;;;20.90;38.80;;;;;;6153431;28;20044;-49
2023/03/11 04:06:10;;;;;;;0.17;0.10;;;21.00;38.80;;;;;;6153937;28;20050;-52
2023/03/11 04:09:12;;;;;;;0.10;0.10;;;20.90;38.70;;;;;;6152358;29;20058;-51
2023/03/11 04:12:16;;;;;;;0.10;0.10;;;21.00;38.80;;;;;;6153205;28;20047;-53
2023/03/11 04:15:20;;;;;;;0.35;0.20;;;20.70;38.60;;;;;;6136684;29;20050;-50
2023/03/11 04:18:22;;;;;;;0.10;0.10;;;20.80;38.70;;;;;;6153558;28;20051;-52
2023/03/11 04:21:24;;;;;;;0.10;0.10;;;20.70;38.70;;;;;;6153353;29;20051;-53
2023/03/11 04:24:26;;;;;;;0.10;0.10;;;21.10;38.90;;;;;;6153150;28;20047;-53
2023/03/11 04:27:32;;;;;;;0.20;0.10;;;21.10;38.80;;;;;;6153419;28;20039;-50
2023/03/11 04:30:35;;;;;;;0.13;0.13;;;21.10;38.60;;;;;;6153241;28;20047;-53
2023/03/11 04:33:36;;;;;;;0.10;0.10;;;20.70;38.70;;;;;;6152962;28;20051;-53
2023/03/11 04:36:40;;;;;;;0.20;0.15;;;20.90;38.70;;;;;;6153276;28;20059;-52
2023/03/11 04:39:46;;;;;;;0.10;0.10;;;21.10;38.80;;;;;;6153739;28;20035;-52
2023/03/11 04:42:47;;;;;;;;;;;20.50;38.40;;;;;;6152217;28;20449;-53
2023/03/11 04:45:50;;;;;;;0.20;0.20;;;20.80;38.60;;;;;;6153208;28;19922;-51
2023/03/11 04:48:53;;;;;;;0.10;0.10;;;20.80;38.60;;;;;;6152951;28;20051;-52
2023/03/11 04:51:55;;;;;;;0.20;0.17;;;21.00;38.70;;;;;;6152677;28;20047;-54
2023/03/11 04:54:58;;;;;;;0.20;0.20;;;21.00;38.70;;;;;;6152670;28;20047;-54
2023/03/11 04:58:02;;;;;;;0.13;0.13;;;20.90;38.60;;;;;;6152881;28;20047;-53
2023/03/11 05:01:05;;;;;;;0.10;0.10;;;21.00;38.60;;;;;;6151612;29;20051;-52
2023/03/11 05:04:07;;;;;;;0.20;0.20;;;21.00;38.60;;;;;;6152957;28;20035;-52
2023/03/11 05:07:09;;;;;;;0.10;0.10;;;21.00;38.60;;;;;;6152457;28;20051;-54
2023/03/11 05:10:12;;;;;;;0.10;0.10;;;20.80;38.50;;;;;;6152682;28;20050;-52
2023/03/11 05:13:13;;;;;;;0.20;0.20;;;21.10;38.60;;;;;;6151182;28;20118;-53
2023/03/11 05:16:16;;;;;;;0.13;0.13;;;20.90;38.40;;;;;;6152297;28;20043;-53
2023/03/11 05:22:38;;;;;;;0.20;0.20;;;20.80;38.40;;;;;;6151553;29;20492;-51
2023/03/11 05:25:40;;;;;;;0.10;0.10;;;20.90;38.40;;;;;;6152447;28;20455;-51
2023/03/11 05:28:43;;;;;;;0.10;0.10;;;20.90;38.40;;;;;;6152367;28;20062;-53
2023/03/11 05:31:45;;;;;;;0.13;0.13;;;20.90;38.40;;;;;;6151934;29;20492;-52
2023/03/11 05:34:47;;;;;;;0.10;0.10;;;20.90;38.30;;;;;;6151989;28;20043;-52
2023/03/11 05:37:52;;;;;;;0.17;0.15;;;21.00;38.40;;;;;;6150303;28;20046;-54
2023/03/11 05:40:54;;;;;;;0.10;0.10;;;20.70;38.30;;;;;;6151882;28;20623;-51
2023/03/11 05:43:55;;;;;;;;;;;20.90;38.30;;;;;;6152184;28;20050;-53
2023/03/11 05:46:58;;;;;;;0.10;0.10;;;21.10;38.50;;;;;;6152278;28;19977;-53
2023/03/11 05:50:02;;;;;;;0.20;0.20;;;20.80;38.30;;;;;;6152365;28;20047;-53
2023/03/11 05:53:03;;;;;;;0.10;0.10;;;20.70;38.20;;;;;;6150248;28;20062;-51
2023/03/11 05:56:09;;;;;;;0.10;0.10;;;20.70;38.20;;;;;;6151874;28;20055;-54
2023/03/11 05:59:15;;;;;;;0.10;0.10;;;20.90;38.20;;;;;;6151921;28;20436;-51
2023/03/11 06:02:20;;;;;;;0.13;0.13;;;20.80;38.30;;;;;;6151491;29;20055;-53
2023/03/11 06:05:22;;;;;;;0.10;0.10;;;20.80;38.30;;;;;;6149649;29;20408;-51
2023/03/11 06:08:25;;;;;;;0.10;0.10;;;21.10;38.50;;;;;;6151483;29;20058;-53
2023/03/11 06:11:26;;;;;;;;;;;20.90;38.40;;;;;;6151400;28;20055;-54
2023/03/11 06:14:30;;;;;;;0.10;0.10;;;20.70;38.40;;;;;;6151196;28;19953;-53
2023/03/11 06:17:35;;;;;;;0.28;0.20;;;21.00;38.50;;;;;;6151357;28;20126;-47
2023/03/11 06:20:43;;;;;;;0.13;0.13;;;20.80;38.40;;;;;;6150927;29;20078;-48
2023/03/11 06:23:46;;;;;;;0.10;0.10;;;20.70;38.40;;;;;;6151025;28;20134;-50
2023/03/11 06:26:51;;;;;;;0.13;0.13;;;20.70;38.40;;;;;;6134199;29;20473;-48
2023/03/11 06:29:53;;;;;;;0.13;0.13;;;20.90;38.50;;;;;;6151083;28;20051;-51
2023/03/11 06:32:58;;;;;;;0.30;0.20;;;21.00;38.60;;;;;;6150756;28;20397;-50
2023/03/11 06:36:00;;;;;;;0.10;0.10;;;20.90;38.70;;;;;;6151147;28;20074;-51
2023/03/11 06:39:03;;;;;;;0.10;0.10;;;20.70;38.40;;;;;;6150982;29;20047;-52
2023/03/11 06:42:11;;;;;;;0.10;0.10;;;21.10;38.70;;;;;;6149627;29;20087;-49
2023/03/11 06:45:14;;;;;;;0.10;0.10;;;21.00;38.70;;;;;;6151489;28;20043;-51
2023/03/11 06:48:17;;;;;;;0.20;0.20;;;21.00;38.70;;;;;;6150660;28;20118;-49
2023/03/11 06:51:20;;;;;;;0.20;0.20;;;20.70;38.60;;;;;;6150505;28;20456;-50
2023/03/11 06:54:22;;;;;;;0.15;0.10;;;20.90;38.70;;;;;;6133691;29;20074;-50
2023/03/11 06:57:26;;;;;;;0.10;0.10;;;20.80;38.70;;;;;;6150510;29;20126;-51
2023/03/11 07:00:30;;;;;;;0.20;0.20;;;21.00;38.80;;;;;;6150562;28;20055;-50
2023/03/11 07:03:34;;;;;;;0.20;0.20;;;20.80;38.70;;;;;;6150691;28;20058;-48
2023/03/11 07:06:36;;;;;;;0.40;0.22;;;21.00;38.80;;;;;;6147754;29;20050;-51
2023/03/11 07:09:42;;;;;;;1.15;0.30;;;20.90;38.90;;;;;;6150345;28;20511;-52
2023/03/11 07:12:47;;;;;;;0.30;0.30;;;20.90;39.00;;;;;;6150524;28;20126;-52
2023/03/11 07:16:08;;;;;;;0.30;0.20;;;20.80;39.20;;;;;;6150297;28;20059;-51
2023/03/11 07:19:13;;;;;;;0.38;0.22;;;20.80;39.20;;;;;;6150261;28;20508;-51
2023/03/11 07:22:15;;;;;;;0.20;0.20;;;21.20;39.40;;;;;;6150932;29;20047;-51
2023/03/11 07:25:17;;;;;;;0.17;0.15;;;21.10;39.40;;;;;;6150717;29;20381;-52
2023/03/11 07:28:25;;;;;;;0.20;0.20;;;20.80;39.20;;;;;;6150192;29;20070;-50
2023/03/11 07:31:29;;;;;;;0.45;0.20;;;20.90;39.30;;;;;;6149917;29;20047;-50
2023/03/11 07:34:33;;;;;;;0.10;0.10;;;21.00;39.30;;;;;;6148851;29;20486;-52
2023/03/11 07:37:34;;;;;;;0.13;0.10;;;21.10;39.30;;;;;;6150353;29;20468;-52
2023/03/11 07:40:39;;;;;;;0.10;0.10;;;21.10;39.40;;;;;;6149996;29;20051;-51
2023/03/11 07:43:42;;;;;;;0.13;0.13;;;20.90;39.20;;;;;;6149901;29;20047;-50
2023/03/11 07:46:46;;;;;;;0.10;0.10;;;21.00;39.30;;;;;;6148494;29;20051;-51
2023/03/11 07:49:48;;;;;;;0.10;0.10;;;20.90;39.20;;;;;;6149870;29;20043;-52
2023/03/11 07:52:49;;;;;;;0.10;0.10;;;20.70;39.10;;;;;;6149589;28;20035;-47
2023/03/11 07:55:55;;;;;;;0.10;0.10;;;21.10;39.40;;;;;;6149524;29;20571;-51
2023/03/11 07:58:57;;;;;;;0.10;0.10;;;21.00;39.30;;;;;;6149777;28;20055;-50
2023/03/11 08:02:01;;;;;;;0.10;0.10;;;20.80;39.20;;;;;;6149581;29;20055;-50
2023/03/11 08:05:06;;;;;;;0.10;0.10;;;20.90;39.30;;;;;;6149342;29;20059;-51
2023/03/11 08:08:10;;;;;;;0.10;0.10;;;20.80;39.30;;;;;;6149657;29;20400;-49
2023/03/11 08:11:12;;;;;;;0.10;0.10;;;21.10;39.50;;;;;;6149320;28;20043;-51
2023/03/11 08:14:14;;;;;;;0.10;0.10;;;20.80;39.30;;;;;;6148158;29;20054;-50
2023/03/11 08:17:15;;;;;;;;;;;20.80;39.40;;;;;;6152515;28;20043;-50
2023/03/11 08:20:18;;;;;;;0.10;0.10;;;20.80;39.50;;;;;;6153524;28;19929;-50
2023/03/11 08:23:22;;;;;;;0.20;0.20;;;21.00;39.50;;;;;;6153231;29;20459;-48
2023/03/11 08:26:23;;;;;;;0.20;0.20;;;20.90;39.50;;;;;;6153733;29;20051;-48
2023/03/11 08:29:25;;;;;;;0.20;0.20;;;20.80;39.50;;;;;;6153359;29;20047;-52
2023/03/11 08:32:29;;;;;;;;;;;20.80;39.50;;;;;;6153441;29;20047;-51
2023/03/11 08:35:32;;;;;;;0.10;0.10;;;21.20;39.90;;;;;;6153380;28;20378;-51
2023/03/11 08:38:33;;;;;;;0.20;0.20;;;21.10;39.60;;;;;;6151860;29;20054;-51
2023/03/11 08:41:38;;;;;;;0.17;0.17;;;21.00;39.70;;;;;;6152975;28;20075;-51
2023/03/11 08:44:39;;;;;;;0.10;0.10;;;20.80;39.60;;;;;;6152050;29;20503;-52
2023/03/11 08:47:43;;;;;;;;;;;21.10;39.80;;;;;;6153533;29;20496;-52
2023/03/11 08:50:45;;;;;;;0.10;0.10;;;20.80;39.70;;;;;;6152797;28;19923;-51
2023/03/11 08:53:57;;;;;;;0.10;0.10;;;21.10;39.80;;;;;;6152951;29;20568;-52
2023/03/11 08:57:01;;;;;;;0.20;0.20;;;21.10;39.90;;;;;;6152965;29;20039;-52
2023/03/11 09:00:08;;;;;;;0.10;0.10;;;20.90;39.80;;;;;;6152587;28;20055;-52
2023/03/11 09:03:09;;;;;;;0.10;0.10;;;21.00;39.90;;;;;;6152890;29;20503;-50
2023/03/11 09:06:14;;;;;;;;;;;21.00;39.90;;;;;;6153264;29;20483;-52
2023/03/11 09:09:18;;;;;;;0.20;0.20;;;20.80;39.90;;;;;;6152205;28;19945;-52
2023/03/11 09:12:19;;;;;;;0.10;0.10;;;21.30;40.10;;;;;;6151101;28;20405;-51
2023/03/11 09:15:21;;;;;;;;;;;20.80;39.90;;;;;;6151607;29;20051;-52
2023/03/11 09:18:23;;;;;;;0.10;0.10;;;21.30;40.30;;;;;;6152349;28;19922;-52
2023/03/11 09:21:25;;;;;;;0.10;0.10;;;21.20;40.10;;;;;;6151014;29;20035;-52
2023/03/11 09:24:26;;;;;;;0.20;0.20;;;21.30;40.30;;;;;;6151021;29;20039;-52
2023/03/11 09:27:28;;;;;;;;;;;21.20;40.30;;;;;;6151961;28;20047;-52
2023/03/11 09:30:30;;;;;;;0.20;0.20;;;21.20;40.40;;;;;;6152033;28;19922;-52
2023/03/11 09:33:35;;;;;;;0.10;0.10;;;21.10;40.20;;;;;;6152131;29;20051;-52
2023/03/11 09:36:40;;;;;;;0.10;0.10;;;20.80;40.20;;;;;;6152672;28;20054;-52
2023/03/11 09:39:43;;;;;;;0.10;0.10;;;21.10;40.40;;;;;;6150690;29;20043;-50
2023/03/11 09:42:54;;;;;;;0.20;0.10;;;21.10;40.50;;;;;;6152071;29;20062;-52
2023/03/11 09:46:11;;;;;;;0.13;0.13;;;21.10;40.60;;;;;;6151843;29;20098;-52
2023/03/11 09:49:22;;;;;;;0.10;0.10;;;21.30;40.80;;;;;;6151663;29;20408;-51
2023/03/11 09:52:29;;;;;;;0.08;0.08;;;20.90;40.70;;;;;;6149675;29;20456;-51
2023/03/11 09:55:37;;;;;;;0.20;0.20;;;21.10;40.90;;;;;;6151679;28;20051;-52
2023/03/11 09:58:44;;;;;;;0.38;0.10;;;21.30;41.10;;;;;;6151472;28;20101;-51
2023/03/11 10:01:48;;;;;;;0.20;0.10;;;21.10;41.00;;;;;;6150268;29;20526;-52
2023/03/11 10:04:56;;;;;;;0.20;0.20;;;20.90;41.00;;;;;;6150818;29;20043;-51
2023/03/11 10:08:03;;;;;;;0.13;0.13;;;21.20;41.30;;;;;;6150286;29;20464;-48
2023/03/11 10:11:15;;;;;;;0.10;0.10;;;21.20;41.40;;;;;;6151156;28;20492;-51
2023/03/11 10:14:34;;;;;;;0.10;0.10;;;21.10;41.50;;;;;;6150135;29;20094;-51
2023/03/11 10:17:56;;;;;;;0.10;0.10;;;21.40;41.70;;;;;;6151145;29;20043;-52
2023/03/11 10:21:05;;;;;;;0.10;0.10;;;21.30;41.70;;;;;;6151058;28;20155;-53
2023/03/11 10:24:18;;;;;;;0.20;0.20;;;21.10;41.60;;;;;;6151455;28;20539;-52
2023/03/11 10:27:26;;;;;;;0.10;0.10;;;21.00;41.70;;;;;;6151219;28;20054;-53
2023/03/11 10:30:31;;;;;;;0.20;0.20;;;21.20;41.80;;;;;;6151058;28;20050;-53
2023/03/11 10:33:36;;;;;;;0.10;0.10;;;21.30;41.90;;;;;;6149648;29;20054;-53
2023/03/11 10:36:44;;;;;;;0.10;0.10;;;21.00;41.90;;;;;;6149741;29;20090;-54
2023/03/11 10:39:47;;;;;;;0.13;0.10;;;21.00;41.90;;;;;;6149834;28;20046;-53
2023/03/11 10:42:50;;;;;;;0.17;0.17;;;21.10;42.10;;;;;;6151363;29;20046;-52
2023/03/11 10:45:54;;;;;;;0.10;0.10;;;21.10;42.20;;;;;;6150995;29;20047;-52
2023/03/11 10:48:56;;;;;;;0.17;0.17;;;21.30;42.40;;;;;;6150805;28;20053;-52
2023/03/11 10:51:57;;;;;;;;;;;21.10;42.40;;;;;;6151622;29;20452;-52
2023/03/11 10:55:01;;;;;;;0.00;0.00;;;21.00;42.40;;;;;;6151191;28;19922;-53
2023/03/11 10:58:06;;;;;;;0.05;0.05;;;21.30;42.50;;;;;;6150496;28;20098;-53
2023/03/11 11:01:15;;;;;;;0.20;0.15;;;21.40;42.80;;;;;;6149319;29;20051;-50
2023/03/11 11:04:27;;;;;;;0.10;0.10;;;21.10;42.80;;;;;;6133687;29;20416;-52
2023/03/11 11:07:31;;;;;;;0.10;0.10;;;21.00;42.90;;;;;;6133703;29;20071;-53
2023/03/11 11:10:34;;;;;;;0.10;0.10;;;21.40;43.20;;;;;;6150400;28;20094;-53
2023/03/11 11:13:36;;;;;;;0.10;0.10;;;21.20;43.20;;;;;;6149052;28;20047;-53
2023/03/11 11:16:39;;;;;;;;;;;21.10;43.30;;;;;;6150779;28;20046;-53
2023/03/11 11:19:44;;;;;;;0.10;0.10;;;21.30;43.40;;;;;;6150290;28;19923;-53
2023/03/11 11:22:51;;;;;;;0.10;0.10;;;21.40;43.40;;;;;;6150514;29;20047;-49
2023/03/11 11:25:58;;;;;;;0.10;0.10;;;21.10;43.50;;;;;;6150627;29;20432;-51
2023/03/11 11:29:13;;;;;;;0.10;0.10;;;21.20;43.70;;;;;;6133918;29;20476;-53
2023/03/11 11:32:23;;;;;;;0.10;0.10;;;21.40;43.90;;;;;;6150866;28;20085;-53
2023/03/11 11:35:25;;;;;;;0.10;0.05;;;21.10;43.90;;;;;;6148983;29;20059;-53
2023/03/11 11:38:31;;;;;;;0.17;0.17;;;21.10;43.80;;;;;;6150020;28;20516;-54
2023/03/11 11:41:35;;;;;;;0.10;0.10;;;21.20;44.00;;;;;;6148692;29;20051;-53
2023/03/11 11:44:37;;;;;;;0.10;0.10;;;21.30;44.20;;;;;;6149823;29;20490;-54
2023/03/11 11:47:45;;;;;;;0.10;0.10;;;21.20;44.30;;;;;;6150010;28;20055;-52
2023/03/11 11:50:51;;;;;;;0.13;0.10;;;21.40;44.50;;;;;;6149025;28;20047;-51
2023/03/11 11:53:58;;;;;;;0.10;0.10;;;21.30;44.60;;;;;;6154163;28;20051;-53
2023/03/11 11:57:09;;;;;;;0.17;0.17;;;21.30;44.80;;;;;;6152630;29;20047;-49
2023/03/11 12:00:19;;;;;;;0.07;0.07;;;21.30;44.80;;;;;;6154516;29;20114;-53
2023/03/11 12:03:44;;;;;;;0.10;0.10;;;21.10;44.80;;;;;;6152599;29;20091;-54
2023/03/11 12:06:53;;;;;;;0.10;0.10;;;21.20;45.10;;;;;;6153684;28;20397;-53
2023/03/11 12:10:10;;;;;;;0.10;0.10;;;21.20;45.10;;;;;;6153963;29;20040;-53
2023/03/11 12:13:48;;;;;;;0.10;0.10;;;21.20;45.20;;;;;;6152674;28;20102;-53
2023/03/11 12:16:56;;;;;;;0.20;0.20;;;21.30;45.40;;;;;;6152700;29;20074;-53
2023/03/11 12:20:01;;;;;;;0.10;0.10;;;21.40;45.60;;;;;;6152283;29;20047;-52
2023/03/11 12:23:16;;;;;;;0.10;0.10;;;21.40;45.70;;;;;;6153639;28;20043;-54
2023/03/11 12:26:21;;;;;;;0.10;0.10;;;21.20;45.80;;;;;;6153207;28;20496;-52
2023/03/11 12:29:32;;;;;;;0.10;0.10;;;21.00;45.80;;;;;;6152137;29;20074;-53
2023/03/11 12:32:37;;;;;;;0.10;0.10;;;21.40;46.30;;;;;;6152211;29;20051;-52
2023/03/11 12:35:39;;;;;;;0.20;0.20;;;21.20;46.30;;;;;;6152119;29;20464;-53
2023/03/11 12:38:45;;;;;;;;;;;21.50;46.60;;;;;;6153459;29;20035;-54
2023/03/11 12:41:47;;;;;;;0.15;0.15;;;21.40;46.60;;;;;;6151755;29;19927;-52
2023/03/11 12:44:49;;;;;;;0.10;0.10;;;21.20;46.50;;;;;;6153194;29;20086;-53
2023/03/11 12:48:20;;;;;;;0.20;0.20;;;21.30;46.80;;;;;;6152502;29;20067;-53
2023/03/11 12:51:38;;;;;;;0.10;0.10;;;21.10;47.00;;;;;;6140871;29;20396;-53
2023/03/11 12:54:40;;;;;;;0.20;0.20;;;21.40;48.00;;;;;;6153083;29;20047;-54
2023/03/11 12:57:54;;;;;;;0.28;0.28;;;21.20;47.30;;;;;;6151673;29;20043;-52
2023/03/11 13:01:17;;;;;;;0.10;0.10;;;21.10;47.50;;;;;;6136408;29;20044;-50
2023/03/11 13:04:30;;;;;;;0.32;0.20;;;21.40;47.70;;;;;;6150492;28;20499;-52
2023/03/11 13:07:42;;;;;;;0.13;0.13;;;21.20;47.80;;;;;;6152812;28;20513;-53
2023/03/11 13:10:45;;;;;;;0.30;0.20;;;21.10;48.00;;;;;;6151742;29;20059;-50
2023/03/11 13:13:46;;;;;;;0.10;0.10;;;21.10;48.00;;;;;;6151312;28;20055;-51
2023/03/11 13:16:49;;;;;;;0.40;0.20;;;21.30;48.30;;;;;;6152689;29;20070;-52
2023/03/11 13:19:52;;;;;;;0.20;0.20;;;21.30;48.50;;;;;;6152286;28;20039;-52
2023/03/11 13:23:19;;;;;;;0.20;0.20;;;21.10;48.50;;;;;;6152218;28;20401;-52
2023/03/11 13:26:29;;;;;;;0.20;0.20;;;21.10;48.90;;;;;;6151583;29;20047;-52
2023/03/11 13:29:50;;;;;;;0.30;0.20;;;21.40;49.00;;;;;;6150969;29;20039;-54
2023/03/11 13:33:17;;;;;;;0.20;0.20;;;21.50;49.40;;;;;;6152067;29;20043;-51
2023/03/11 13:36:37;;;;;;;0.20;0.20;;;21.20;49.40;;;;;;6150903;29;20048;-53
2023/03/11 13:39:53;;;;;;;0.25;0.20;;;21.30;49.50;;;;;;6152049;29;20043;-52
2023/03/11 13:43:00;;;;;;;0.30;0.30;;;21.20;49.70;;;;;;6151825;29;20055;-51
2023/03/11 13:46:11;;;;;;;0.20;0.20;;;21.50;50.10;;;;;;6150727;29;20078;-52
2023/03/11 13:49:29;;;;;;;0.30;0.30;;;21.30;50.20;;;;;;6151853;28;20050;-52
2023/03/11 13:52:34;;;;;;;0.30;0.30;;;21.20;50.60;;;;;;6151595;28;20039;-53
2023/03/11 13:55:39;;;;;;;0.20;0.20;;;21.10;50.50;;;;;;6152045;29;20035;-53
2023/03/11 13:58:41;;;;;;;0.40;0.40;;;21.40;50.90;;;;;;6151806;29;20051;-52
2023/03/11 14:01:47;;;;;;;;;;;21.30;51.00;;;;;;6152023;28;20043;-50
2023/03/11 14:04:54;;;;;;;0.30;0.30;;;21.30;51.10;;;;;;6151364;28;19922;-52
2023/03/11 14:08:11;;;;;;;0.30;0.30;;;21.20;51.00;;;;;;6134613;29;20095;-51
2023/03/11 14:11:16;;;;;;;0.30;0.30;;;21.30;51.60;;;;;;6151344;28;20047;-52
2023/03/11 14:14:31;;;;;;;0.32;0.30;;;21.20;51.60;;;;;;6151485;28;20043;-53
2023/03/11 14:17:32;;;;;;;0.40;0.35;;;21.40;52.10;;;;;;6151267;29;20047;-51
2023/03/11 14:20:34;;;;;;;;;;;21.20;52.10;;;;;;6151792;29;20050;-53
2023/03/11 14:23:41;;;;;;;0.40;0.30;;;21.60;52.30;;;;;;6151425;28;20309;-54
2023/03/11 14:26:43;;;;;;;0.22;0.20;;;21.20;52.80;;;;;;6151622;28;20448;-52
2023/03/11 14:29:47;;;;;;;0.30;0.20;;;21.20;52.40;;;;;;6151513;28;20484;-52
2023/03/11 14:32:57;;;;;;;0.30;0.30;;;21.30;52.70;;;;;;6151714;28;20094;-53
2023/03/11 14:36:10;;;;;;;0.40;0.30;;;21.60;53.20;;;;;;6134238;29;20047;-53
2023/03/11 14:39:27;;;;;;;0.30;0.30;;;21.40;53.30;;;;;;6151144;28;20575;-53
2023/03/11 14:42:34;;;;;;;0.40;0.30;;;21.50;53.60;;;;;;6150833;28;20054;-49
2023/03/11 14:45:40;;;;;;;0.45;0.40;;;21.50;53.60;;;;;;6150614;29;20491;-52
2023/03/11 14:48:43;;;;;;;0.30;0.30;;;21.40;53.80;;;;;;6151222;29;20439;-51
2023/03/11 14:51:48;;;;;;;0.47;0.40;;;21.40;54.00;;;;;;6151018;29;20050;-53
2023/03/11 14:54:52;;;;;;;0.20;0.20;;;21.60;54.40;;;;;;6150444;28;20578;-53
2023/03/11 14:57:56;;;;;;;0.40;0.30;;;21.30;54.50;;;;;;6150799;29;20043;-53
2023/03/11 15:01:03;;;;;;;0.20;0.20;;;21.40;54.70;;;;;;6149566;29;20039;-53
2023/03/11 15:04:08;;;;;;;0.30;0.30;;;21.40;55.00;;;;;;6150781;28;20508;-54
2023/03/11 15:07:10;;;;;;;0.30;0.30;;;21.50;55.30;;;;;;6149272;29;20046;-53
2023/03/11 15:10:16;;;;;;;0.20;0.20;;;21.30;55.30;;;;;;6150392;28;20050;-52
2023/03/11 15:13:17;;;;;;;0.32;0.30;;;21.60;55.60;;;;;;6150240;28;20122;-54
2023/03/11 15:16:27;;;;;;;0.10;0.10;;;21.70;55.80;;;;;;6150597;29;20071;-52
2023/03/11 15:19:33;;;;;;;0.30;0.20;;;21.60;55.90;;;;;;6150732;28;20048;-53
2023/03/11 15:22:38;;;;;;;0.30;0.20;;;21.60;55.90;;;;;;6150188;29;20062;-53
2023/03/11 15:25:48;;;;;;;0.45;0.20;;;21.70;56.10;;;;;;6133765;28;20070;-53
2023/03/11 15:28:56;;;;;;;0.20;0.20;;;21.50;56.10;;;;;;6154491;28;20082;-53
2023/03/11 15:31:58;;;;;;;0.43;0.30;;;21.70;56.30;;;;;;6154277;29;20071;-53
2023/03/11 15:35:03;;;;;;;0.40;0.38;;;21.50;56.20;;;;;;6154828;29;20396;-53
2023/03/11 15:38:19;;;;;;;0.35;0.35;;;21.50;56.30;;;;;;6137580;29;20047;-51
2023/03/11 15:41:22;;;;;;;0.20;0.20;;;21.50;56.40;;;;;;6154236;28;20066;-53
2023/03/11 15:44:27;;;;;;;0.20;0.20;;;21.70;56.40;;;;;;6154187;29;20069;-54
2023/03/11 15:47:30;;;;;;;0.30;0.25;;;21.70;56.40;;;;;;6152955;29;20091;-52
2023/03/11 15:50:31;;;;;;;0.30;0.30;;;21.70;56.50;;;;;;6154241;28;20074;-53
2023/03/11 15:53:53;;;;;;;0.20;0.20;;;21.60;56.50;;;;;;6153172;29;20074;-52
2023/03/11 15:56:56;;;;;;;0.20;0.20;;;21.60;57.10;;;;;;6154559;29;20054;-53
2023/03/11 16:00:01;;;;;;;0.40;0.28;;;21.60;56.50;;;;;;6153674;29;20106;-54
2023/03/11 16:03:02;;;;;;;0.30;0.30;;;21.50;56.50;;;;;;6136966;29;20480;-51
2023/03/11 16:06:06;;;;;;;0.55;0.40;;;21.70;56.70;;;;;;6152902;29;20043;-52
2023/03/11 16:09:08;;;;;;;0.50;0.30;;;21.70;56.80;;;;;;6153829;29;20559;-53
2023/03/11 16:12:17;;;;;;;0.30;0.30;;;21.50;56.80;;;;;;6152318;28;20047;-53
2023/03/11 16:15:23;;;;;;;0.50;0.40;;;21.80;57.00;;;;;;6153955;29;20094;-53